Airfield :
LOGIN :

Register | Disclaimer

   EN    FR    IT 

 










Legend :    VFR   Marginal VFR   IFR   Intensive IFR   Very Intensive IFR
Visi :
Ceiling :
>= 8 km
>= 3000ft
5 to 8 km
1000 to 3000 ft
1500m to 5 km
500 to 1000 ft
800 to 1500m
200 to 500 ft
< 800m
< 200 ft
Symbols :   Thunderstorms  Fog  Heavy snow  Heavy precipitations  Wind > 20 kt
SIGMETs :     Misc.  Thunderstorms  Icing  Turbulence  Mountain Waves  Volcanic Ashes







- Airport Elevation : 138 ft
- IATA code : BIO


LEBB - Bilbao

CURRENT METAR :
  • 191930Z VRB02KT CAVOK 17/12 Q1012 NOSIG

EXPIRED METARs :
  • 191900Z 12002KT CAVOK 16/13 Q1012 NOSIG
  • 191830Z VRB02KT CAVOK 16/13 Q1011 NOSIG
  • 191800Z 11003KT CAVOK 17/13 Q1011 NOSIG
  • 191730Z 10004KT 080V140 CAVOK 18/13 Q1011 NOSIG
  • 191700Z 12003KT 070V140 CAVOK 19/13 Q1010 NOSIG

TAF TAF LEBB
Valid from the 19 at 18:00 until the 20 at 18:00 UTC


191700Z 1918/2018 18007KT 9999 FEW050 TX25/2014Z TN14/2007Z
PROB30
TEMPO 2012/2016 04010KT
No reported NOTAMs for that airfield.
1 SIGMET reported for the Madrid FIR (LECM) :
 
Severe turbulence
LECM SIGMET 7 VALID 192000/192400 LEVA
LECM MADRID FIR/UIR SEV TURB FCST E OF LINE N4340 W002 - N3810 W002 FL200/340 MOV E 20KT WKN=



MET'MAP, your aeronautical weather chart ! - Copyright ORBIFLY December 2007 - Disclaimer

ORBIFLY MET'MAP TEAM :

Programming & Development : Alexandra Zaïnal
Concept & Development : Baudouin d'Aumeries
Co-Development & Prog : Marc-Olivier Méhu
Technical & hardware support : Manuel Goepfert

Contact : metmap@orbifly.com




SOURCES & CREDITS :

   NOAA